Flight Track Log - Related Links

Times and Time Zones

All times are in EDT time to prevent confusion due to time zone crossing. See the UAL1426 flight status page for this flight to view local times or setup timezone preferences in your user account.

Time Position Orientation Groundspeed Altitude Reporting Facility
EDT Latitude Longitude Course Direction KTS MPH feet Rate Location/Type
Sat 08:22:09 PM 29.9614 -95.3411 147° Southeast 154 177 900  Level Houston Center
Sat 08:22:52 PM 29.9397 -95.3100 129° Southeast 195 224 2,400 1,788 Climbing Houston Center
Sat 08:23:53 PM 29.8983 -95.2475 127° Southeast 266 306 4,000 1,129 Climbing Houston Center
Sat 08:24:00 PM 29.6717 -95.1330 152° Southeast  Level FlightAware Approximate
Sat 08:24:17 PM 29.8875 -95.2261 120° Southeast 244 281 4,000  Level Houston Center
Sat 08:24:54 PM 29.8486 -95.1861 138° Southeast 259 298 4,900 1,967 Climbing Houston Center
Sat 08:25:00 PM 29.5675 -95.0672 150° Southeast  Level FlightAware Approximate
Sat 08:25:18 PM 29.8303 -95.1761 155° Southeast 269 310 6,000  Level Houston Center
Sat 08:26:00 PM 29.4647 -94.9985 147° Southeast  Level FlightAware Approximate
Sat 08:26:19 PM 29.7636 -95.1397 155° Southeast 263 303 10,000  Level Houston Center
Sat 08:27:00 PM 29.3651 -94.9238 147° Southeast  Level FlightAware Approximate
Sat 08:27:21 PM 29.6903 -95.0983 154° Southeast 286 329 12,100  Level Houston Center
Sat 08:28:22 PM 29.6019 -95.0500 155° Southeast 339 390 14,700 2,508 Climbing Houston Center
Sat 08:29:23 PM 29.5056 -94.9967 154° Southeast 374 430 17,200 2,705 Climbing Houston Center
Sat 08:30:24 PM 29.4047 -94.9411 154° Southeast 396 456 20,200 2,683 Climbing Houston Center
Sat 08:31:26 PM 29.3033 -94.8856 154° Southeast 400 460 22,700 2,244 Climbing Houston Center
Sat 08:32:27 PM 29.2022 -94.8233 152° Southeast 409 471 24,800 1,820 Climbing Houston Center
Sat 08:33:28 PM 29.0986 -94.7511 149° Southeast 427 491 26,400 1,770 Climbing Houston Center
Sat 08:34:29 PM 28.9697 -94.6650 150° Southeast 444 511 28,400 1,707 Climbing Houston Center
Sat 08:35:31 PM 28.8592 -94.5897 149° Southeast 457 526 29,900 1,756 Climbing Houston Center
Sat 08:36:32 PM 28.7481 -94.5158 150° Southeast 462 532 32,000 1,869 Climbing Houston Center
Sat 08:37:33 PM 28.6400 -94.4419 149° Southeast 454 522 33,700 1,475 Climbing Houston Center
Sat 08:38:34 PM 28.5308 -94.3700 150° Southeast 454 522 35,000 639 Climbing Houston Center
Sat 08:39:35 PM 28.4219 -94.2967 149° Southeast 454 522 35,000  Level Houston Center
Sat 08:40:36 PM 28.3128 -94.2236 149° Southeast 455 524 35,000  Level Houston Center
Sat 08:41:38 PM 28.2033 -94.1503 149° Southeast 457 526 35,000  Level Houston Center
Sat 08:42:39 PM 28.1017 -94.0636 143° Southeast 459 528 35,000  Level Houston Center
Sat 08:43:40 PM 27.9831 -93.9489 139° Southeast 466 536 35,000  Level Houston Center
Sat 08:44:41 PM 27.8839 -93.8561 140° Southeast 465 535 35,000  Level Houston Center
Sat 08:45:42 PM 27.7853 -93.7617 140° Southeast 464 534 35,000  Level Houston Center
Sat 08:46:43 PM 27.6844 -93.6686 141° Southeast 467 537 35,000  Level Houston Center
Sat 08:47:45 PM 27.5853 -93.5733 140° Southeast 469 540 35,000  Level Houston Center
Sat 08:48:46 PM 27.4839 -93.4778 140° Southeast 474 545 35,000  Level Houston Center
Sat 08:49:47 PM 27.3819 -93.3831 140° Southeast 476 548 35,000  Level Houston Center
Sat 08:50:48 PM 27.2811 -93.2861 139° Southeast 476 548 35,000  Level Houston Center
Sat 08:51:49 PM 27.1686 -93.1825 141° Southeast 476 548 35,000  Level Houston Center
Sat 08:52:50 PM 27.0758 -93.0947 140° Southeast 480 552 35,000  Level Houston Center
Sat 08:53:51 PM 26.9636 -92.9881 140° Southeast 482 555 35,000  Level Houston Center
Sat 08:54:52 PM 26.8592 -92.8950 142° Southeast 482 555 35,000  Level Houston Center
Sat 08:55:53 PM 26.7542 -92.8031 142° Southeast 481 554 35,000  Level Houston Center
Sat 08:57:00 PM 26.6448 -92.7306 149° Southeast  Level FlightAware Approximate
Sat 09:04:00 PM 25.9577 -92.2807 149° Southeast  Level FlightAware Approximate
Sat 09:05:00 PM 25.8594 -92.2169 150° Southeast  Level FlightAware Approximate
Sat 09:06:00 PM 25.7598 -92.1558 152° Southeast  Level FlightAware Approximate
Sat 09:07:00 PM 25.6598 -92.0954 149° Southeast  Level FlightAware Approximate
Sat 09:08:00 PM 25.5622 -92.0305 149° Southeast  Level FlightAware Approximate
Sat 09:09:00 PM 25.4645 -91.9658 149° Southeast  Level FlightAware Approximate
Sat 09:10:00 PM 25.3668 -91.9011 149° Southeast  Level FlightAware Approximate
Sat 09:11:00 PM 25.2691 -91.8365 149° Southeast  Level FlightAware Approximate
Sat 09:12:00 PM 25.1714 -91.7720 149° Southeast  Level FlightAware Approximate
Sat 09:13:00 PM 25.0736 -91.7077 149° Southeast  Level FlightAware Approximate
Sat 09:14:00 PM 24.9758 -91.6434 149° Southeast  Level FlightAware Approximate
Sat 09:15:00 PM 24.8780 -91.5793 149° Southeast  Level FlightAware Approximate
Sat 09:16:00 PM 24.7801 -91.5153 149° Southeast  Level FlightAware Approximate
Sat 09:17:00 PM 24.6821 -91.4516 149° Southeast  Level FlightAware Approximate
Sat 09:18:00 PM 24.5841 -91.3879 149° Southeast  Level FlightAware Approximate
Sat 09:19:00 PM 24.4853 -91.3260 155° Southeast  Level FlightAware Approximate
Sat 09:20:00 PM 24.3818 -91.2741 155° Southeast  Level FlightAware Approximate
Sat 09:21:00 PM 24.2782 -91.2223 156° South  Level FlightAware Approximate
Sat 09:22:00 PM 24.1743 -91.1712 157° South  Level FlightAware Approximate
Sat 09:23:00 PM 24.0698 -91.1220 157° South  Level FlightAware Approximate
Sat 09:24:00 PM 23.9652 -91.0728 157° South  Level FlightAware Approximate
Sat 09:25:00 PM 23.8610 -91.0227 156° South  Level FlightAware Approximate
Sat 09:26:00 PM 23.7571 -90.9719 156° South  Level FlightAware Approximate
Sat 09:27:00 PM 23.6532 -90.9212 156° South  Level FlightAware Approximate
Sat 09:28:00 PM 23.5493 -90.8706 156° South  Level FlightAware Approximate
Sat 09:29:00 PM 23.4453 -90.8200 156° South  Level FlightAware Approximate
Sat 09:30:00 PM 23.3414 -90.7695 156° South  Level FlightAware Approximate
Sat 09:31:00 PM 23.2373 -90.7194 156° South  Level FlightAware Approximate
Sat 09:32:00 PM 23.1329 -90.6699 156° South  Level FlightAware Approximate
Sat 09:33:00 PM 23.0286 -90.6205 156° South  Level FlightAware Approximate
Sat 09:34:00 PM 22.9243 -90.5711 156° South  Level FlightAware Approximate
Sat 09:35:00 PM 22.8201 -90.5213 156° South  Level FlightAware Approximate
Sat 09:36:00 PM 22.7159 -90.4717 156° South  Level FlightAware Approximate
Sat 09:37:00 PM 22.6116 -90.4222 156° South  Level FlightAware Approximate
Sat 09:38:00 PM 22.5046 -90.3845 154° Southeast  Level FlightAware Approximate
Sat 09:39:00 PM 22.4027 -90.3296 154° Southeast  Level FlightAware Approximate
Sat 09:40:00 PM 22.3002 -90.2763 158° South  Level FlightAware Approximate
Sat 09:41:00 PM 22.1944 -90.2309 158° South  Level FlightAware Approximate
Sat 09:42:00 PM 22.0886 -90.1856 158° South  Level FlightAware Approximate
Sat 09:43:00 PM 21.9846 -90.1358 156° South  Level FlightAware Approximate
Sat 09:44:00 PM 21.8806 -90.0859 156° South  Level FlightAware Approximate
Sat 09:45:00 PM 21.7766 -90.0360 156° South  Level FlightAware Approximate
Sat 09:46:00 PM 21.6726 -89.9862 156° South  Level FlightAware Approximate
Sat 09:47:00 PM 21.5661 -89.9431 160° South  Level FlightAware Approximate
Sat 09:48:00 PM 21.4608 -89.8970 155° Southeast  Level FlightAware Approximate
Sat 09:49:00 PM 21.3576 -89.8454 155° Southeast  Level FlightAware Approximate
Sat 09:50:00 PM 21.2535 -89.7960 157° South  Level FlightAware Approximate
Sat 09:51:00 PM 21.1484 -89.7492 155° Southeast  Level FlightAware Approximate
Sat 09:52:00 PM 21.0440 -89.7009 160° South  Level FlightAware Approximate
Sat 09:53:00 PM 20.9394 -89.6530 155° Southeast  Level FlightAware Approximate
Sat 09:54:00 PM 20.9370 -89.6577 180° South  Level Estimated
Sat 09:55:00 PM 20.9370 -89.6577 180° South  Level Estimated
Sat 09:56:00 PM 20.9370 -89.6577 180° South  Level Estimated
Sat 09:57:00 PM 20.9370 -89.6577 180° South  Level Estimated

Login

Don't have an account? Register now (free) for customized features, flight alerts, and more!